sensor_id;sensor_type;location;lat;lon;timestamp;temperature;humidity
14529;DHT22;7351;51.194;4.098;2022-08-19T00:00:30;20.90;99.90
14529;DHT22;7351;51.194;4.098;2022-08-19T00:02:59;20.90;99.90
14529;DHT22;7351;51.194;4.098;2022-08-19T00:05:26;20.80;99.90
14529;DHT22;7351;51.194;4.098;2022-08-19T00:07:53;20.70;99.90
14529;DHT22;7351;51.194;4.098;2022-08-19T00:10:20;20.70;99.90
14529;DHT22;7351;51.194;4.098;2022-08-19T00:12:47;20.70;99.90
14529;DHT22;7351;51.194;4.098;2022-08-19T00:15:17;20.80;99.90
14529;DHT22;7351;51.194;4.098;2022-08-19T00:17:45;20.80;99.90
14529;DHT22;7351;51.194;4.098;2022-08-19T00:20:15;20.90;99.90
14529;DHT22;7351;51.194;4.098;2022-08-19T00:22:44;20.90;99.90
14529;DHT22;7351;51.194;4.098;2022-08-19T00:25:11;20.90;99.90
14529;DHT22;7351;51.194;4.098;2022-08-19T00:27:39;20.90;99.90
14529;DHT22;7351;51.194;4.098;2022-08-19T00:30:08;21.00;99.90
14529;DHT22;7351;51.194;4.098;2022-08-19T00:32:36;21.00;99.90
14529;DHT22;7351;51.194;4.098;2022-08-19T00:35:05;20.90;99.90
14529;DHT22;7351;51.194;4.098;2022-08-19T00:37:33;20.90;99.90
14529;DHT22;7351;51.194;4.098;2022-08-19T00:40:04;20.80;99.90
14529;DHT22;7351;51.194;4.098;2022-08-19T00:42:32;20.80;99.90
14529;DHT22;7351;51.194;4.098;2022-08-19T00:44:59;20.80;99.90
14529;DHT22;7351;51.194;4.098;2022-08-19T00:47:26;20.70;99.90
14529;DHT22;7351;51.194;4.098;2022-08-19T00:49:56;20.70;99.90
14529;DHT22;7351;51.194;4.098;2022-08-19T00:52:27;20.70;99.90
14529;DHT22;7351;51.194;4.098;2022-08-19T00:54:57;20.60;99.90
14529;DHT22;7351;51.194;4.098;2022-08-19T00:57:28;20.70;99.90
14529;DHT22;7351;51.194;4.098;2022-08-19T00:59:57;20.70;99.90
14529;DHT22;7351;51.194;4.098;2022-08-19T01:02:25;20.70;99.90
14529;DHT22;7351;51.194;4.098;2022-08-19T01:04:56;20.70;99.90
14529;DHT22;7351;51.194;4.098;2022-08-19T01:07:23;20.70;99.90
14529;DHT22;7351;51.194;4.098;2022-08-19T01:09:51;20.70;99.90
14529;DHT22;7351;51.194;4.098;2022-08-19T01:12:20;20.60;99.90
14529;DHT22;7351;51.194;4.098;2022-08-19T01:14:48;20.60;99.90
14529;DHT22;7351;51.194;4.098;2022-08-19T01:17:16;20.70;99.90
14529;DHT22;7351;51.194;4.098;2022-08-19T01:19:45;20.80;99.90
14529;DHT22;7351;51.194;4.098;2022-08-19T01:22:19;20.80;99.90
14529;DHT22;7351;51.194;4.098;2022-08-19T01:24:50;20.70;99.90
14529;DHT22;7351;51.194;4.098;2022-08-19T01:27:18;20.70;99.90
14529;DHT22;7351;51.194;4.098;2022-08-19T01:29:46;20.60;99.90
14529;DHT22;7351;51.194;4.098;2022-08-19T01:32:15;20.60;99.90
14529;DHT22;7351;51.194;4.098;2022-08-19T01:34:43;20.60;99.90
14529;DHT22;7351;51.194;4.098;2022-08-19T01:37:12;20.60;99.90
14529;DHT22;7351;51.194;4.098;2022-08-19T01:39:41;20.50;99.90
14529;DHT22;7351;51.194;4.098;2022-08-19T01:42:10;20.50;99.90
14529;DHT22;7351;51.194;4.098;2022-08-19T01:44:38;20.30;99.90
14529;DHT22;7351;51.194;4.098;2022-08-19T01:47:06;20.20;99.90
14529;DHT22;7351;51.194;4.098;2022-08-19T01:49:35;20.20;99.90
14529;DHT22;7351;51.194;4.098;2022-08-19T01:52:02;20.10;99.90
14529;DHT22;7351;51.194;4.098;2022-08-19T01:54:30;20.00;99.90
14529;DHT22;7351;51.194;4.098;2022-08-19T01:57:00;20.00;99.90
14529;DHT22;7351;51.194;4.098;2022-08-19T01:59:30;19.90;99.90
14529;DHT22;7351;51.194;4.098;2022-08-19T02:02:01;19.90;99.90
14529;DHT22;7351;51.194;4.098;2022-08-19T02:04:29;19.80;99.90
14529;DHT22;7351;51.194;4.098;2022-08-19T02:06:57;19.90;99.90
14529;DHT22;7351;51.194;4.098;2022-08-19T02:09:24;19.90;99.90
14529;DHT22;7351;51.194;4.098;2022-08-19T02:11:51;19.90;99.90
14529;DHT22;7351;51.194;4.098;2022-08-19T02:14:18;19.80;99.90
14529;DHT22;7351;51.194;4.098;2022-08-19T02:16:47;19.70;99.90
14529;DHT22;7351;51.194;4.098;2022-08-19T02:19:14;19.80;99.90
14529;DHT22;7351;51.194;4.098;2022-08-19T02:21:41;19.70;99.90
14529;DHT22;7351;51.194;4.098;2022-08-19T02:24:09;19.70;99.90
14529;DHT22;7351;51.194;4.098;2022-08-19T02:26:36;19.70;99.90
14529;DHT22;7351;51.194;4.098;2022-08-19T02:29:04;19.60;99.90
14529;DHT22;7351;51.194;4.098;2022-08-19T02:31:31;19.60;99.90
14529;DHT22;7351;51.194;4.098;2022-08-19T02:34:00;19.70;99.90
14529;DHT22;7351;51.194;4.098;2022-08-19T02:36:27;19.70;99.90
14529;DHT22;7351;51.194;4.098;2022-08-19T02:38:55;19.80;99.90
14529;DHT22;7351;51.194;4.098;2022-08-19T02:41:24;19.80;99.90
14529;DHT22;7351;51.194;4.098;2022-08-19T02:43:54;19.90;99.90
14529;DHT22;7351;51.194;4.098;2022-08-19T02:46:24;19.90;99.90
14529;DHT22;7351;51.194;4.098;2022-08-19T02:48:54;19.80;99.90
14529;DHT22;7351;51.194;4.098;2022-08-19T02:51:25;19.80;99.90
14529;DHT22;7351;51.194;4.098;2022-08-19T02:53:52;19.60;99.90
14529;DHT22;7351;51.194;4.098;2022-08-19T02:56:20;19.60;99.90
14529;DHT22;7351;51.194;4.098;2022-08-19T02:58:48;19.60;99.90
14529;DHT22;7351;51.194;4.098;2022-08-19T03:01:20;19.60;99.90
14529;DHT22;7351;51.194;4.098;2022-08-19T03:03:48;19.60;99.90
14529;DHT22;7351;51.194;4.098;2022-08-19T03:06:15;19.60;99.90
14529;DHT22;7351;51.194;4.098;2022-08-19T03:08:46;19.50;99.90
14529;DHT22;7351;51.194;4.098;2022-08-19T03:11:16;19.60;99.90
14529;DHT22;7351;51.194;4.098;2022-08-19T03:13:45;19.50;99.90
14529;DHT22;7351;51.194;4.098;2022-08-19T03:16:15;19.50;99.90
14529;DHT22;7351;51.194;4.098;2022-08-19T03:18:42;19.40;99.90
14529;DHT22;7351;51.194;4.098;2022-08-19T03:21:14;19.30;99.90
14529;DHT22;7351;51.194;4.098;2022-08-19T03:23:41;19.30;99.90
14529;DHT22;7351;51.194;4.098;2022-08-19T03:26:10;19.30;99.90
14529;DHT22;7351;51.194;4.098;2022-08-19T03:28:37;19.30;99.90
14529;DHT22;7351;51.194;4.098;2022-08-19T03:31:06;19.30;99.90
14529;DHT22;7351;51.194;4.098;2022-08-19T03:33:34;19.30;99.90
14529;DHT22;7351;51.194;4.098;2022-08-19T03:36:05;19.20;99.90
14529;DHT22;7351;51.194;4.098;2022-08-19T03:38:34;19.20;99.90
14529;DHT22;7351;51.194;4.098;2022-08-19T03:41:06;19.20;99.90
14529;DHT22;7351;51.194;4.098;2022-08-19T03:43:36;19.00;99.90
14529;DHT22;7351;51.194;4.098;2022-08-19T03:46:08;19.00;99.90
14529;DHT22;7351;51.194;4.098;2022-08-19T03:48:36;18.90;99.90
14529;DHT22;7351;51.194;4.098;2022-08-19T03:51:04;18.90;99.90
14529;DHT22;7351;51.194;4.098;2022-08-19T03:53:32;19.00;99.90
14529;DHT22;7351;51.194;4.098;2022-08-19T03:56:00;19.00;99.90
14529;DHT22;7351;51.194;4.098;2022-08-19T03:58:29;19.00;99.90
14529;DHT22;7351;51.194;4.098;2022-08-19T04:00:58;19.00;99.90
14529;DHT22;7351;51.194;4.098;2022-08-19T04:03:25;18.90;99.90
14529;DHT22;7351;51.194;4.098;2022-08-19T04:05:53;18.90;99.90
14529;DHT22;7351;51.194;4.098;2022-08-19T04:08:20;18.80;99.90
14529;DHT22;7351;51.194;4.098;2022-08-19T04:10:48;18.80;99.90
14529;DHT22;7351;51.194;4.098;2022-08-19T04:13:16;18.80;99.90
14529;DHT22;7351;51.194;4.098;2022-08-19T04:15:45;18.70;99.90
14529;DHT22;7351;51.194;4.098;2022-08-19T04:18:14;18.80;99.90
14529;DHT22;7351;51.194;4.098;2022-08-19T04:20:43;18.90;99.90
14529;DHT22;7351;51.194;4.098;2022-08-19T04:23:10;18.80;99.90
14529;DHT22;7351;51.194;4.098;2022-08-19T04:25:38;18.50;99.90
14529;DHT22;7351;51.194;4.098;2022-08-19T04:28:07;18.90;99.90
14529;DHT22;7351;51.194;4.098;2022-08-19T04:30:40;18.90;99.90
14529;DHT22;7351;51.194;4.098;2022-08-19T04:33:08;18.90;99.90
14529;DHT22;7351;51.194;4.098;2022-08-19T04:35:38;18.90;99.90
14529;DHT22;7351;51.194;4.098;2022-08-19T04:38:06;18.90;99.90
14529;DHT22;7351;51.194;4.098;2022-08-19T04:40:33;18.90;99.90
14529;DHT22;7351;51.194;4.098;2022-08-19T04:43:29;18.80;99.90
14529;DHT22;7351;51.194;4.098;2022-08-19T04:45:57;18.90;99.90
14529;DHT22;7351;51.194;4.098;2022-08-19T04:48:24;18.90;99.90
14529;DHT22;7351;51.194;4.098;2022-08-19T04:50:54;18.90;99.90
14529;DHT22;7351;51.194;4.098;2022-08-19T04:53:26;18.80;99.90
14529;DHT22;7351;51.194;4.098;2022-08-19T04:55:57;18.70;99.90
14529;DHT22;7351;51.194;4.098;2022-08-19T04:58:26;18.80;99.90
14529;DHT22;7351;51.194;4.098;2022-08-19T05:00:54;18.80;99.90
14529;DHT22;7351;51.194;4.098;2022-08-19T05:03:21;18.80;99.90
14529;DHT22;7351;51.194;4.098;2022-08-19T05:05:48;18.80;99.90
14529;DHT22;7351;51.194;4.098;2022-08-19T05:08:19;18.90;99.90
14529;DHT22;7351;51.194;4.098;2022-08-19T05:10:49;18.90;99.90
14529;DHT22;7351;51.194;4.098;2022-08-19T05:13:18;18.90;99.90
14529;DHT22;7351;51.194;4.098;2022-08-19T05:15:53;19.00;99.90
14529;DHT22;7351;51.194;4.098;2022-08-19T05:18:21;19.00;99.90
14529;DHT22;7351;51.194;4.098;2022-08-19T05:21:06;19.00;99.90
14529;DHT22;7351;51.194;4.098;2022-08-19T05:23:52;18.90;99.90
14529;DHT22;7351;51.194;4.098;2022-08-19T05:26:19;18.80;99.90
14529;DHT22;7351;51.194;4.098;2022-08-19T05:28:46;18.90;99.90
14529;DHT22;7351;51.194;4.098;2022-08-19T05:31:13;18.90;99.90
14529;DHT22;7351;51.194;4.098;2022-08-19T05:33:40;18.90;99.90
14529;DHT22;7351;51.194;4.098;2022-08-19T05:36:07;18.90;99.90
14529;DHT22;7351;51.194;4.098;2022-08-19T05:38:35;18.90;99.90
14529;DHT22;7351;51.194;4.098;2022-08-19T05:41:07;19.00;99.90
14529;DHT22;7351;51.194;4.098;2022-08-19T05:43:35;19.10;99.90
14529;DHT22;7351;51.194;4.098;2022-08-19T05:46:02;19.20;99.90
14529;DHT22;7351;51.194;4.098;2022-08-19T05:48:31;19.20;99.90
14529;DHT22;7351;51.194;4.098;2022-08-19T05:51:03;19.20;99.90
14529;DHT22;7351;51.194;4.098;2022-08-19T05:53:31;19.30;99.90
14529;DHT22;7351;51.194;4.098;2022-08-19T05:56:03;19.30;99.90
14529;DHT22;7351;51.194;4.098;2022-08-19T05:58:32;19.40;99.90
14529;DHT22;7351;51.194;4.098;2022-08-19T06:00:59;19.40;99.90
14529;DHT22;7351;51.194;4.098;2022-08-19T06:03:30;19.50;99.90
14529;DHT22;7351;51.194;4.098;2022-08-19T06:05:57;19.60;99.90
14529;DHT22;7351;51.194;4.098;2022-08-19T06:08:26;19.70;99.90
14529;DHT22;7351;51.194;4.098;2022-08-19T06:10:53;19.70;99.90
14529;DHT22;7351;51.194;4.098;2022-08-19T06:13:20;19.80;99.90
14529;DHT22;7351;51.194;4.098;2022-08-19T06:15:49;19.80;99.90
14529;DHT22;7351;51.194;4.098;2022-08-19T06:18:16;19.80;99.90
14529;DHT22;7351;51.194;4.098;2022-08-19T06:20:45;19.90;99.90
14529;DHT22;7351;51.194;4.098;2022-08-19T06:23:12;19.90;99.90
14529;DHT22;7351;51.194;4.098;2022-08-19T06:25:39;20.00;99.90
14529;DHT22;7351;51.194;4.098;2022-08-19T06:28:06;20.00;99.90
14529;DHT22;7351;51.194;4.098;2022-08-19T06:30:33;20.00;99.90
14529;DHT22;7351;51.194;4.098;2022-08-19T06:33:01;20.10;99.90
14529;DHT22;7351;51.194;4.098;2022-08-19T06:35:29;20.20;99.90
14529;DHT22;7351;51.194;4.098;2022-08-19T06:37:56;20.30;99.90
14529;DHT22;7351;51.194;4.098;2022-08-19T06:40:23;20.40;99.90
14529;DHT22;7351;51.194;4.098;2022-08-19T06:42:50;20.50;99.90
14529;DHT22;7351;51.194;4.098;2022-08-19T06:45:18;20.40;99.90
14529;DHT22;7351;51.194;4.098;2022-08-19T06:47:46;20.50;99.90
14529;DHT22;7351;51.194;4.098;2022-08-19T06:50:15;20.50;99.90
14529;DHT22;7351;51.194;4.098;2022-08-19T06:52:42;20.60;99.90
14529;DHT22;7351;51.194;4.098;2022-08-19T06:55:09;20.70;99.90
14529;DHT22;7351;51.194;4.098;2022-08-19T06:57:36;20.70;99.90
14529;DHT22;7351;51.194;4.098;2022-08-19T07:00:05;20.70;99.90
14529;DHT22;7351;51.194;4.098;2022-08-19T07:02:34;20.70;99.90
14529;DHT22;7351;51.194;4.098;2022-08-19T07:05:03;20.70;99.90
14529;DHT22;7351;51.194;4.098;2022-08-19T07:07:32;20.60;99.90
14529;DHT22;7351;51.194;4.098;2022-08-19T07:09:59;20.60;99.90
14529;DHT22;7351;51.194;4.098;2022-08-19T07:12:28;20.60;99.90
14529;DHT22;7351;51.194;4.098;2022-08-19T07:14:57;20.60;99.90
14529;DHT22;7351;51.194;4.098;2022-08-19T07:17:24;20.80;99.90
14529;DHT22;7351;51.194;4.098;2022-08-19T07:19:52;20.80;99.90
14529;DHT22;7351;51.194;4.098;2022-08-19T07:22:19;21.00;99.90
14529;DHT22;7351;51.194;4.098;2022-08-19T07:24:47;21.00;99.90
14529;DHT22;7351;51.194;4.098;2022-08-19T07:27:15;21.00;99.90
14529;DHT22;7351;51.194;4.098;2022-08-19T07:29:42;21.10;99.90
14529;DHT22;7351;51.194;4.098;2022-08-19T07:32:10;21.10;99.90
14529;DHT22;7351;51.194;4.098;2022-08-19T07:34:37;21.20;99.90
14529;DHT22;7351;51.194;4.098;2022-08-19T07:37:05;21.10;99.90
14529;DHT22;7351;51.194;4.098;2022-08-19T07:39:34;21.10;99.90
14529;DHT22;7351;51.194;4.098;2022-08-19T07:42:07;21.20;99.90
14529;DHT22;7351;51.194;4.098;2022-08-19T07:44:34;21.40;99.90
14529;DHT22;7351;51.194;4.098;2022-08-19T07:47:02;21.50;99.90
14529;DHT22;7351;51.194;4.098;2022-08-19T07:49:29;21.50;99.90
14529;DHT22;7351;51.194;4.098;2022-08-19T07:51:59;21.60;99.90
14529;DHT22;7351;51.194;4.098;2022-08-19T07:54:30;21.60;99.90
14529;DHT22;7351;51.194;4.098;2022-08-19T07:56:57;21.60;99.90
14529;DHT22;7351;51.194;4.098;2022-08-19T07:59:26;21.80;99.90
14529;DHT22;7351;51.194;4.098;2022-08-19T08:01:55;21.70;99.90
14529;DHT22;7351;51.194;4.098;2022-08-19T08:04:22;21.80;99.90
14529;DHT22;7351;51.194;4.098;2022-08-19T08:07:08;21.90;99.90
14529;DHT22;7351;51.194;4.098;2022-08-19T08:09:52;21.90;99.90
14529;DHT22;7351;51.194;4.098;2022-08-19T08:12:22;22.00;99.90
14529;DHT22;7351;51.194;4.098;2022-08-19T08:14:54;22.30;99.90
14529;DHT22;7351;51.194;4.098;2022-08-19T08:17:24;22.00;99.90
14529;DHT22;7351;51.194;4.098;2022-08-19T08:19:52;22.10;99.90
14529;DHT22;7351;51.194;4.098;2022-08-19T08:22:21;22.10;99.90
14529;DHT22;7351;51.194;4.098;2022-08-19T08:25:09;22.10;99.90
14529;DHT22;7351;51.194;4.098;2022-08-19T08:27:37;22.00;99.90
14529;DHT22;7351;51.194;4.098;2022-08-19T08:30:07;22.10;99.90
14529;DHT22;7351;51.194;4.098;2022-08-19T08:32:35;22.20;99.90
14529;DHT22;7351;51.194;4.098;2022-08-19T08:35:03;22.20;99.90
14529;DHT22;7351;51.194;4.098;2022-08-19T08:37:30;22.20;99.90
14529;DHT22;7351;51.194;4.098;2022-08-19T08:39:58;22.30;99.90
14529;DHT22;7351;51.194;4.098;2022-08-19T08:42:29;22.40;99.90
14529;DHT22;7351;51.194;4.098;2022-08-19T08:45:00;22.40;99.90
14529;DHT22;7351;51.194;4.098;2022-08-19T08:47:34;22.50;99.90
14529;DHT22;7351;51.194;4.098;2022-08-19T08:50:05;22.50;99.90
14529;DHT22;7351;51.194;4.098;2022-08-19T08:52:37;22.40;99.90
14529;DHT22;7351;51.194;4.098;2022-08-19T08:55:11;22.30;99.90
14529;DHT22;7351;51.194;4.098;2022-08-19T08:57:49;22.20;99.90
14529;DHT22;7351;51.194;4.098;2022-08-19T09:00:23;22.10;99.90
14529;DHT22;7351;51.194;4.098;2022-08-19T09:02:54;22.00;99.90
14529;DHT22;7351;51.194;4.098;2022-08-19T09:05:24;22.00;99.90
14529;DHT22;7351;51.194;4.098;2022-08-19T09:07:59;22.10;99.90
14529;DHT22;7351;51.194;4.098;2022-08-19T09:10:31;22.10;99.90
14529;DHT22;7351;51.194;4.098;2022-08-19T09:13:06;22.10;99.90
14529;DHT22;7351;51.194;4.098;2022-08-19T09:15:38;22.20;99.90
14529;DHT22;7351;51.194;4.098;2022-08-19T09:18:08;22.30;99.90
14529;DHT22;7351;51.194;4.098;2022-08-19T09:20:35;22.50;99.90
14529;DHT22;7351;51.194;4.098;2022-08-19T09:23:03;22.40;99.90
14529;DHT22;7351;51.194;4.098;2022-08-19T09:25:30;22.30;99.90
14529;DHT22;7351;51.194;4.098;2022-08-19T09:28:00;22.30;99.90
14529;DHT22;7351;51.194;4.098;2022-08-19T09:30:31;22.20;99.90
14529;DHT22;7351;51.194;4.098;2022-08-19T09:32:58;22.20;99.90
14529;DHT22;7351;51.194;4.098;2022-08-19T09:35:29;22.20;99.90
14529;DHT22;7351;51.194;4.098;2022-08-19T09:37:57;22.10;99.90
14529;DHT22;7351;51.194;4.098;2022-08-19T09:40:25;22.10;99.90
14529;DHT22;7351;51.194;4.098;2022-08-19T09:42:52;22.10;99.90
14529;DHT22;7351;51.194;4.098;2022-08-19T09:45:21;22.20;99.90
14529;DHT22;7351;51.194;4.098;2022-08-19T09:47:49;22.20;99.90
14529;DHT22;7351;51.194;4.098;2022-08-19T09:50:17;21.90;99.90
14529;DHT22;7351;51.194;4.098;2022-08-19T09:52:46;22.30;99.90
14529;DHT22;7351;51.194;4.098;2022-08-19T09:55:13;22.40;99.90
14529;DHT22;7351;51.194;4.098;2022-08-19T09:57:41;22.50;99.90
14529;DHT22;7351;51.194;4.098;2022-08-19T10:00:09;22.60;99.90
14529;DHT22;7351;51.194;4.098;2022-08-19T10:02:37;22.50;99.90
14529;DHT22;7351;51.194;4.098;2022-08-19T10:05:04;22.60;99.90
14529;DHT22;7351;51.194;4.098;2022-08-19T10:07:50;22.60;99.90
14529;DHT22;7351;51.194;4.098;2022-08-19T10:10:17;22.70;99.90
14529;DHT22;7351;51.194;4.098;2022-08-19T10:12:44;22.80;99.90
14529;DHT22;7351;51.194;4.098;2022-08-19T10:15:13;22.80;99.90
14529;DHT22;7351;51.194;4.098;2022-08-19T10:17:41;22.90;99.90
14529;DHT22;7351;51.194;4.098;2022-08-19T10:20:08;22.90;99.90
14529;DHT22;7351;51.194;4.098;2022-08-19T10:22:35;22.90;99.90
14529;DHT22;7351;51.194;4.098;2022-08-19T10:25:06;23.20;99.90
14529;DHT22;7351;51.194;4.098;2022-08-19T10:27:33;23.30;99.90
14529;DHT22;7351;51.194;4.098;2022-08-19T10:30:00;23.40;99.90
14529;DHT22;7351;51.194;4.098;2022-08-19T10:32:27;23.40;99.90
14529;DHT22;7351;51.194;4.098;2022-08-19T10:34:55;23.50;99.90
14529;DHT22;7351;51.194;4.098;2022-08-19T10:37:23;23.60;99.90
14529;DHT22;7351;51.194;4.098;2022-08-19T10:39:50;23.70;99.90
14529;DHT22;7351;51.194;4.098;2022-08-19T10:42:19;23.70;99.90
14529;DHT22;7351;51.194;4.098;2022-08-19T10:44:46;23.60;99.90
14529;DHT22;7351;51.194;4.098;2022-08-19T10:47:13;23.70;99.90
14529;DHT22;7351;51.194;4.098;2022-08-19T10:49:41;23.70;99.90
14529;DHT22;7351;51.194;4.098;2022-08-19T10:52:22;23.70;99.90
14529;DHT22;7351;51.194;4.098;2022-08-19T10:55:01;23.80;99.90
14529;DHT22;7351;51.194;4.098;2022-08-19T10:57:47;24.00;99.90
14529;DHT22;7351;51.194;4.098;2022-08-19T11:00:15;24.00;99.90
14529;DHT22;7351;51.194;4.098;2022-08-19T11:02:42;23.90;99.90
14529;DHT22;7351;51.194;4.098;2022-08-19T11:05:09;23.90;99.90
14529;DHT22;7351;51.194;4.098;2022-08-19T11:07:37;23.80;99.90
14529;DHT22;7351;51.194;4.098;2022-08-19T11:10:05;23.80;99.90
14529;DHT22;7351;51.194;4.098;2022-08-19T11:12:33;23.80;99.90
14529;DHT22;7351;51.194;4.098;2022-08-19T11:15:01;24.00;99.90
14529;DHT22;7351;51.194;4.098;2022-08-19T11:17:28;24.10;99.90
14529;DHT22;7351;51.194;4.098;2022-08-19T11:19:57;24.40;99.90
14529;DHT22;7351;51.194;4.098;2022-08-19T11:22:25;24.60;99.90
14529;DHT22;7351;51.194;4.098;2022-08-19T11:24:52;24.70;99.90
14529;DHT22;7351;51.194;4.098;2022-08-19T11:27:19;24.80;99.90
14529;DHT22;7351;51.194;4.098;2022-08-19T11:29:46;24.90;99.90
14529;DHT22;7351;51.194;4.098;2022-08-19T11:32:15;25.00;99.90
14529;DHT22;7351;51.194;4.098;2022-08-19T11:34:42;25.10;99.90
14529;DHT22;7351;51.194;4.098;2022-08-19T11:37:09;25.20;99.90
14529;DHT22;7351;51.194;4.098;2022-08-19T11:39:37;25.20;99.90
14529;DHT22;7351;51.194;4.098;2022-08-19T11:42:06;25.40;99.90
14529;DHT22;7351;51.194;4.098;2022-08-19T11:44:47;25.50;99.90
14529;DHT22;7351;51.194;4.098;2022-08-19T11:47:16;25.50;99.90
14529;DHT22;7351;51.194;4.098;2022-08-19T11:49:43;25.50;99.90
14529;DHT22;7351;51.194;4.098;2022-08-19T11:52:10;25.80;99.90
14529;DHT22;7351;51.194;4.098;2022-08-19T11:54:37;25.80;99.90
14529;DHT22;7351;51.194;4.098;2022-08-19T11:57:04;25.90;99.90
14529;DHT22;7351;51.194;4.098;2022-08-19T11:59:31;25.90;99.90
14529;DHT22;7351;51.194;4.098;2022-08-19T12:01:58;25.80;99.90
14529;DHT22;7351;51.194;4.098;2022-08-19T12:04:27;25.90;99.90
14529;DHT22;7351;51.194;4.098;2022-08-19T12:06:54;25.90;99.90
14529;DHT22;7351;51.194;4.098;2022-08-19T12:09:21;25.90;99.90
14529;DHT22;7351;51.194;4.098;2022-08-19T12:11:48;25.90;99.90
14529;DHT22;7351;51.194;4.098;2022-08-19T12:14:16;26.00;99.90
14529;DHT22;7351;51.194;4.098;2022-08-19T12:16:45;26.00;99.90
14529;DHT22;7351;51.194;4.098;2022-08-19T12:19:12;26.10;99.90
14529;DHT22;7351;51.194;4.098;2022-08-19T12:21:41;26.10;99.90
14529;DHT22;7351;51.194;4.098;2022-08-19T12:24:08;26.10;99.90
14529;DHT22;7351;51.194;4.098;2022-08-19T12:26:35;26.10;99.90
14529;DHT22;7351;51.194;4.098;2022-08-19T12:29:03;26.10;99.90
14529;DHT22;7351;51.194;4.098;2022-08-19T12:31:30;25.90;99.90
14529;DHT22;7351;51.194;4.098;2022-08-19T12:33:58;25.90;99.90
14529;DHT22;7351;51.194;4.098;2022-08-19T12:36:26;25.90;99.90
14529;DHT22;7351;51.194;4.098;2022-08-19T12:38:54;25.80;99.90
14529;DHT22;7351;51.194;4.098;2022-08-19T12:41:24;25.70;99.90
14529;DHT22;7351;51.194;4.098;2022-08-19T12:43:51;25.60;99.90
14529;DHT22;7351;51.194;4.098;2022-08-19T12:46:19;25.70;99.90
14529;DHT22;7351;51.194;4.098;2022-08-19T12:48:46;25.70;99.90
14529;DHT22;7351;51.194;4.098;2022-08-19T12:51:16;25.70;99.90
14529;DHT22;7351;51.194;4.098;2022-08-19T12:53:45;25.70;99.90
14529;DHT22;7351;51.194;4.098;2022-08-19T12:56:13;25.60;99.90
14529;DHT22;7351;51.194;4.098;2022-08-19T12:58:42;25.80;99.90
14529;DHT22;7351;51.194;4.098;2022-08-19T13:01:12;26.00;99.90
14529;DHT22;7351;51.194;4.098;2022-08-19T13:03:40;26.10;99.90
14529;DHT22;7351;51.194;4.098;2022-08-19T13:06:07;26.20;99.90
14529;DHT22;7351;51.194;4.098;2022-08-19T13:08:35;26.40;99.90
14529;DHT22;7351;51.194;4.098;2022-08-19T13:11:10;26.50;99.90
14529;DHT22;7351;51.194;4.098;2022-08-19T13:13:42;26.60;99.90
14529;DHT22;7351;51.194;4.098;2022-08-19T13:16:10;26.60;99.90
14529;DHT22;7351;51.194;4.098;2022-08-19T13:18:38;26.50;99.90
14529;DHT22;7351;51.194;4.098;2022-08-19T13:21:07;26.80;99.90
14529;DHT22;7351;51.194;4.098;2022-08-19T13:23:35;26.80;99.90
14529;DHT22;7351;51.194;4.098;2022-08-19T13:26:05;26.90;99.90
14529;DHT22;7351;51.194;4.098;2022-08-19T13:28:32;26.90;99.90
14529;DHT22;7351;51.194;4.098;2022-08-19T13:31:17;27.00;99.90
14529;DHT22;7351;51.194;4.098;2022-08-19T13:34:02;27.10;99.90
14529;DHT22;7351;51.194;4.098;2022-08-19T13:36:29;27.10;99.90
14529;DHT22;7351;51.194;4.098;2022-08-19T13:38:56;27.10;99.90
14529;DHT22;7351;51.194;4.098;2022-08-19T13:41:23;27.00;99.90
14529;DHT22;7351;51.194;4.098;2022-08-19T13:43:50;26.80;99.90
14529;DHT22;7351;51.194;4.098;2022-08-19T13:46:19;26.80;99.90
14529;DHT22;7351;51.194;4.098;2022-08-19T13:48:46;26.60;99.90
14529;DHT22;7351;51.194;4.098;2022-08-19T13:51:15;26.40;99.90
14529;DHT22;7351;51.194;4.098;2022-08-19T13:53:43;26.10;99.90
14529;DHT22;7351;51.194;4.098;2022-08-19T13:56:12;25.90;99.90
14529;DHT22;7351;51.194;4.098;2022-08-19T13:58:39;25.80;99.90
14529;DHT22;7351;51.194;4.098;2022-08-19T14:01:07;25.80;99.90
14529;DHT22;7351;51.194;4.098;2022-08-19T14:03:36;25.70;99.90
14529;DHT22;7351;51.194;4.098;2022-08-19T14:06:03;25.60;99.90
14529;DHT22;7351;51.194;4.098;2022-08-19T14:08:30;25.50;99.90
14529;DHT22;7351;51.194;4.098;2022-08-19T14:10:59;25.40;99.90
14529;DHT22;7351;51.194;4.098;2022-08-19T14:13:26;25.40;99.90
14529;DHT22;7351;51.194;4.098;2022-08-19T14:15:53;25.30;99.90
14529;DHT22;7351;51.194;4.098;2022-08-19T14:18:20;25.10;99.90
14529;DHT22;7351;51.194;4.098;2022-08-19T14:20:49;25.00;99.90
14529;DHT22;7351;51.194;4.098;2022-08-19T14:23:16;24.80;99.90
14529;DHT22;7351;51.194;4.098;2022-08-19T14:25:44;24.60;99.90
14529;DHT22;7351;51.194;4.098;2022-08-19T14:28:12;24.40;99.90
14529;DHT22;7351;51.194;4.098;2022-08-19T14:30:39;24.10;99.90
14529;DHT22;7351;51.194;4.098;2022-08-19T14:33:06;24.00;99.90
14529;DHT22;7351;51.194;4.098;2022-08-19T14:35:33;23.50;99.90
14529;DHT22;7351;51.194;4.098;2022-08-19T14:38:03;23.30;99.90
14529;DHT22;7351;51.194;4.098;2022-08-19T14:40:31;23.20;99.90
14529;DHT22;7351;51.194;4.098;2022-08-19T14:43:01;23.10;99.90
14529;DHT22;7351;51.194;4.098;2022-08-19T14:45:30;23.00;99.90
14529;DHT22;7351;51.194;4.098;2022-08-19T14:47:58;23.00;99.90
14529;DHT22;7351;51.194;4.098;2022-08-19T14:50:26;23.10;99.90
14529;DHT22;7351;51.194;4.098;2022-08-19T14:52:58;23.20;99.90
14529;DHT22;7351;51.194;4.098;2022-08-19T14:55:27;23.30;99.90
14529;DHT22;7351;51.194;4.098;2022-08-19T14:57:54;23.30;99.90
14529;DHT22;7351;51.194;4.098;2022-08-19T15:00:22;23.50;99.90
14529;DHT22;7351;51.194;4.098;2022-08-19T15:02:49;23.80;99.90
14529;DHT22;7351;51.194;4.098;2022-08-19T15:05:17;24.00;99.90
14529;DHT22;7351;51.194;4.098;2022-08-19T15:07:44;24.40;99.90
14529;DHT22;7351;51.194;4.098;2022-08-19T15:10:12;24.70;99.90
14529;DHT22;7351;51.194;4.098;2022-08-19T15:12:41;25.00;99.90
14529;DHT22;7351;51.194;4.098;2022-08-19T15:15:11;25.00;99.90
14529;DHT22;7351;51.194;4.098;2022-08-19T15:17:39;25.10;99.90
14529;DHT22;7351;51.194;4.098;2022-08-19T15:20:07;25.10;99.90
14529;DHT22;7351;51.194;4.098;2022-08-19T15:22:35;25.20;99.90
14529;DHT22;7351;51.194;4.098;2022-08-19T15:25:03;25.10;99.90
14529;DHT22;7351;51.194;4.098;2022-08-19T15:27:30;25.10;99.90
14529;DHT22;7351;51.194;4.098;2022-08-19T15:29:59;25.30;99.90
14529;DHT22;7351;51.194;4.098;2022-08-19T15:32:26;25.10;99.90
14529;DHT22;7351;51.194;4.098;2022-08-19T15:34:53;25.20;99.90
14529;DHT22;7351;51.194;4.098;2022-08-19T15:37:20;25.30;99.90
14529;DHT22;7351;51.194;4.098;2022-08-19T15:39:48;25.30;99.90
14529;DHT22;7351;51.194;4.098;2022-08-19T15:42:15;25.20;99.90
14529;DHT22;7351;51.194;4.098;2022-08-19T15:44:42;25.30;99.90
14529;DHT22;7351;51.194;4.098;2022-08-19T15:47:13;25.00;99.90
14529;DHT22;7351;51.194;4.098;2022-08-19T15:49:40;24.60;99.90
14529;DHT22;7351;51.194;4.098;2022-08-19T15:52:07;24.30;99.90
14529;DHT22;7351;51.194;4.098;2022-08-19T15:54:34;24.30;99.90